createdAt,value
2018-06-11T00:01:54.145Z,13.43
2018-06-11T00:04:31.164Z,13.83
2018-06-11T00:07:07.904Z,14.77
2018-06-11T00:09:44.664Z,15.30
2018-06-11T00:12:22.006Z,14.83
2018-06-11T00:14:51.308Z,16.23
2018-06-11T00:17:20.618Z,15.50
2018-06-11T00:19:50.118Z,16.03
2018-06-11T00:22:21.130Z,14.67
2018-06-11T00:24:58.506Z,13.53
2018-06-11T00:27:34.860Z,13.87
2018-06-11T00:30:04.452Z,13.53
2018-06-11T00:32:34.618Z,14.47
2018-06-11T00:35:04.536Z,15.97
2018-06-11T00:37:33.604Z,16.70
2018-06-11T00:40:02.725Z,17.03
2018-06-11T00:42:33.877Z,17.30
2018-06-11T00:45:03.285Z,17.23
2018-06-11T00:47:32.714Z,17.00
2018-06-11T00:50:02.142Z,15.63
2018-06-11T00:52:32.525Z,16.63
2018-06-11T00:55:01.902Z,15.23
2018-06-11T00:57:31.329Z,14.70
2018-06-11T01:00:00.676Z,14.97
2018-06-11T01:02:31.057Z,14.93
2018-06-11T01:05:00.349Z,14.37
2018-06-11T01:07:29.780Z,14.67
2018-06-11T01:09:59.173Z,14.63
2018-06-11T01:12:29.613Z,14.20
2018-06-11T01:14:59.017Z,15.37
2018-06-11T01:17:28.386Z,15.13
2018-06-11T01:19:57.709Z,15.07
2018-06-11T01:22:27.069Z,13.93
2018-06-11T01:24:56.402Z,14.13
2018-06-11T01:27:25.753Z,13.87
2018-06-11T01:29:55.190Z,15.27
2018-06-11T01:32:25.658Z,14.47
2018-06-11T01:34:55.139Z,15.63
2018-06-11T01:37:24.460Z,16.07
2018-06-11T01:39:53.798Z,15.67
2018-06-11T01:42:23.261Z,16.57
2018-06-11T01:44:52.647Z,15.43
2018-06-11T01:47:21.978Z,15.93
2018-06-11T01:49:51.313Z,15.50
2018-06-11T01:52:21.606Z,15.93
2018-06-11T01:54:51.068Z,17.07
2018-06-11T01:57:20.437Z,17.57
2018-06-11T01:59:49.788Z,17.27
2018-06-11T02:02:20.221Z,15.93
2018-06-11T02:04:49.514Z,15.17
2018-06-11T02:07:18.882Z,15.87
2018-06-11T02:09:48.189Z,16.10
2018-06-11T02:12:17.653Z,16.00
2018-06-11T02:14:46.997Z,15.50
2018-06-11T02:17:22.997Z,17.53
2018-06-11T02:19:52.380Z,15.57
2018-06-11T02:22:21.742Z,15.53
2018-06-11T02:24:51.094Z,14.40
2018-06-11T02:27:20.452Z,16.17
2018-06-11T02:29:49.770Z,16.43
2018-06-11T02:32:21.162Z,16.13
2018-06-11T02:34:50.485Z,17.80
2018-06-11T02:37:19.798Z,17.73
2018-06-11T02:39:49.157Z,18.27
2018-06-11T02:42:19.501Z,17.00
2018-06-11T02:44:48.893Z,16.30
2018-06-11T02:47:18.306Z,16.17
2018-06-11T02:49:47.709Z,16.80
2018-06-11T02:52:18.121Z,15.43
2018-06-11T02:54:47.536Z,16.83
2018-06-11T02:57:16.874Z,16.47
2018-06-11T02:59:46.282Z,16.73
2018-06-11T03:02:16.706Z,16.80
2018-06-11T03:04:46.018Z,16.17
2018-06-11T03:07:15.345Z,16.20
2018-06-11T03:09:44.769Z,15.70
2018-06-11T03:12:15.182Z,16.77
2018-06-11T03:14:44.557Z,15.17
2018-06-11T03:17:13.932Z,17.93
2018-06-11T03:19:43.298Z,17.27
2018-06-11T03:22:14.712Z,18.23
2018-06-11T03:24:44.065Z,17.97
2018-06-11T03:27:13.400Z,16.50
2018-06-11T03:29:42.566Z,16.30
2018-06-11T03:32:12.712Z,15.37
2018-06-11T03:34:41.793Z,16.77
2018-06-11T03:37:10.946Z,14.60
2018-06-11T03:39:40.027Z,15.37
2018-06-11T03:42:11.197Z,14.53
2018-06-11T03:44:40.341Z,15.07
2018-06-11T03:47:09.489Z,14.80
2018-06-11T03:49:38.604Z,15.17
2018-06-11T03:52:07.813Z,15.30
2018-06-11T03:54:36.890Z,17.17
2018-06-11T03:57:06.042Z,16.37
2018-06-11T03:59:35.145Z,16.67
2018-06-11T04:02:06.340Z,15.33
2018-06-11T04:04:35.489Z,16.90
2018-06-11T04:07:04.612Z,19.17
2018-06-11T04:09:33.754Z,17.47
2018-06-11T04:12:03.157Z,17.87
2018-06-11T04:14:32.646Z,16.73
2018-06-11T04:17:01.966Z,16.63
2018-06-11T04:19:31.261Z,15.93
2018-06-11T04:22:00.764Z,16.47
2018-06-11T04:24:45.161Z,18.00
2018-06-11T04:27:33.821Z,18.83
2018-06-11T04:30:10.841Z,20.33
2018-06-11T04:32:48.053Z,19.50
2018-06-11T04:35:17.954Z,18.87
2018-06-11T04:37:55.159Z,17.30
2018-06-11T04:40:24.293Z,17.37
2018-06-11T04:42:53.405Z,19.30
2018-06-11T04:45:22.556Z,19.17
2018-06-11T04:47:51.725Z,17.83
2018-06-11T04:50:28.578Z,18.57
2018-06-11T04:53:05.745Z,17.70
2018-06-11T04:55:34.841Z,18.53
2018-06-11T04:58:03.996Z,19.60
2018-06-11T05:00:33.239Z,19.40
2018-06-11T05:03:02.590Z,17.93
2018-06-11T05:05:39.001Z,18.67
2018-06-11T05:08:15.849Z,18.30
2018-06-11T05:10:52.678Z,19.77
2018-06-11T05:13:29.478Z,18.70
2018-06-11T05:15:58.638Z,17.10
2018-06-11T05:18:35.650Z,18.67
2018-06-11T05:21:06.896Z,18.80
2018-06-11T05:23:36.262Z,19.87
2018-06-11T05:26:05.652Z,17.83
2018-06-11T05:28:34.990Z,19.40
2018-06-11T05:31:06.455Z,18.63
2018-06-11T05:33:35.818Z,17.87
2018-06-11T05:36:05.239Z,18.70
2018-06-11T05:38:42.274Z,17.43
2018-06-11T05:41:12.435Z,16.30
2018-06-11T05:43:41.521Z,16.37
2018-06-11T05:46:10.906Z,16.90
2018-06-11T05:48:40.263Z,17.17
2018-06-11T05:51:12.881Z,16.17
2018-06-11T05:53:42.281Z,15.27
2018-06-11T05:56:18.984Z,14.70
2018-06-11T05:58:48.320Z,14.17
2018-06-11T06:01:18.722Z,14.80
2018-06-11T06:03:48.098Z,15.47
2018-06-11T06:06:17.451Z,13.93
2018-06-11T06:08:46.872Z,13.80
2018-06-11T06:11:17.329Z,13.30
2018-06-11T06:13:46.700Z,14.07
2018-06-11T06:16:16.054Z,12.90
2018-06-11T06:18:45.476Z,13.67
2018-06-11T06:21:16.826Z,12.57
2018-06-11T06:23:46.235Z,13.00
2018-06-11T06:26:15.690Z,12.73
2018-06-11T06:28:45.090Z,11.53
2018-06-11T06:31:14.520Z,11.53
2018-06-11T06:33:43.966Z,12.43
2018-06-11T06:36:13.323Z,12.13
2018-06-11T06:38:42.714Z,12.10
2018-06-11T06:41:12.171Z,11.93
2018-06-11T06:43:41.646Z,11.03
2018-06-11T06:46:11.066Z,11.13
2018-06-11T06:48:40.462Z,11.33
2018-06-11T06:51:10.893Z,11.43
2018-06-11T06:53:40.233Z,10.87
2018-06-11T06:56:09.637Z,10.37
2018-06-11T06:58:39.073Z,10.47
2018-06-11T07:01:09.555Z,11.00
2018-06-11T07:03:39.003Z,10.10
2018-06-11T07:06:08.408Z,10.03
2018-06-11T07:08:37.827Z,10.07
2018-06-11T07:11:08.225Z,10.20
2018-06-11T07:13:37.761Z,10.50
2018-06-11T07:16:07.219Z,10.70
2018-06-11T07:18:36.695Z,10.03
2018-06-11T07:21:07.134Z,9.90
2018-06-11T07:23:36.570Z,9.97
2018-06-11T07:26:06.091Z,9.47
2018-06-11T07:28:47.184Z,9.53
2018-06-11T07:31:18.200Z,9.97
2018-06-11T07:33:47.281Z,10.17
2018-06-11T07:36:16.571Z,9.98
2018-06-11T07:38:45.898Z,9.53
2018-06-11T07:41:19.677Z,10.23
2018-06-11T07:43:55.916Z,9.43
2018-06-11T07:46:33.122Z,10.25
2018-06-11T07:49:14.467Z,9.63
2018-06-11T07:52:00.402Z,9.78
2018-06-11T07:54:37.701Z,8.33
2018-06-11T07:57:07.111Z,9.65
2018-06-11T07:59:51.877Z,9.33
2018-06-11T08:02:37.118Z,9.30
2018-06-11T08:05:18.711Z,8.85
2018-06-11T08:07:49.378Z,8.70
2018-06-11T08:10:18.534Z,8.53
2018-06-11T08:12:47.830Z,8.75
2018-06-11T08:15:45.822Z,8.65
2018-06-11T08:18:15.148Z,9.50
2018-06-11T08:20:52.086Z,9.00
2018-06-11T08:23:29.155Z,9.95
2018-06-11T08:26:13.388Z,9.75
2018-06-11T08:28:49.864Z,9.70
2018-06-11T08:31:27.469Z,9.80
2018-06-11T08:33:56.696Z,9.65
2018-06-11T08:36:29.277Z,10.43
2018-06-11T08:38:58.665Z,10.28
2018-06-11T08:41:28.100Z,10.72
2018-06-11T08:43:57.493Z,10.43
2018-06-11T08:46:26.848Z,11.15
2018-06-11T08:48:56.187Z,9.90
2018-06-11T08:51:25.922Z,10.00
2018-06-11T08:53:55.407Z,10.88
2018-06-11T08:56:24.758Z,10.43
2018-06-11T09:01:28.458Z,8.68
2018-06-11T09:03:57.902Z,8.98
2018-06-11T09:06:27.757Z,9.63
2018-06-11T09:08:57.177Z,9.43
2018-06-11T09:11:32.457Z,9.70
2018-06-11T09:14:01.793Z,9.65
2018-06-11T09:16:47.822Z,10.10
2018-06-11T09:19:25.966Z,9.90
2018-06-11T09:22:09.252Z,9.35
2018-06-11T09:27:26.899Z,8.88
2018-06-11T09:29:56.347Z,9.00
2018-06-11T09:32:26.487Z,10.18
2018-06-11T09:34:55.901Z,11.33
2018-06-11T09:37:35.583Z,9.93
2018-06-11T09:40:32.047Z,5.63
2018-06-11T09:43:01.665Z,4.87
2018-06-11T09:45:31.288Z,2.50
2018-06-11T09:48:00.764Z,2.23
2018-06-11T09:50:29.925Z,2.80
2018-06-11T09:52:59.049Z,3.47
2018-06-11T09:55:28.583Z,3.80
2018-06-11T09:57:58.115Z,3.70
2018-06-11T10:00:36.320Z,3.30
2018-06-11T10:03:06.055Z,3.67
2018-06-11T10:05:35.674Z,2.97
2018-06-11T10:08:05.045Z,3.53
2018-06-11T10:10:34.522Z,3.53
2018-06-11T10:13:04.023Z,2.83
2018-06-11T10:15:33.411Z,3.07
2018-06-11T10:18:02.835Z,2.33
2018-06-11T10:20:32.295Z,2.30
2018-06-11T10:23:01.760Z,2.40
2018-06-11T10:25:31.307Z,2.20
2018-06-11T10:28:00.687Z,2.70
2018-06-11T10:30:31.242Z,3.47
2018-06-11T10:33:00.808Z,4.00
2018-06-11T10:35:30.454Z,3.17
2018-06-11T10:38:00.089Z,3.13
2018-06-11T10:40:30.534Z,3.87
2018-06-11T10:43:12.454Z,3.83
2018-06-11T10:45:41.990Z,4.22
2018-06-11T10:48:11.132Z,5.30
2018-06-11T10:50:41.018Z,5.20
2018-06-11T10:53:10.422Z,6.78
2018-06-11T10:55:40.463Z,5.80
2018-06-11T10:58:09.790Z,6.70
2018-06-11T11:00:41.234Z,6.05
2018-06-11T11:03:10.598Z,6.05
2018-06-11T11:05:40.516Z,5.35
2018-06-11T11:08:09.911Z,6.42
2018-06-11T11:10:40.523Z,7.20
2018-06-11T11:13:09.858Z,8.08
2018-06-11T11:15:39.299Z,7.65
2018-06-11T11:18:08.977Z,8.23
2018-06-11T11:20:40.573Z,8.25
2018-06-11T11:23:09.938Z,8.15
2018-06-11T11:25:39.290Z,7.55
2018-06-11T11:28:08.710Z,7.62
2018-06-11T11:30:40.187Z,9.03
2018-06-11T11:33:09.523Z,8.93
2018-06-11T11:35:38.862Z,8.05
2018-06-11T11:38:08.264Z,8.48
2018-06-11T11:40:38.531Z,8.30
2018-06-11T11:43:07.943Z,9.03
2018-06-11T11:45:37.390Z,8.93
2018-06-11T11:48:06.909Z,10.13
2018-06-11T11:50:48.301Z,10.23
2018-06-11T11:53:17.485Z,10.45
2018-06-11T11:55:46.640Z,11.33
2018-06-11T11:58:15.776Z,11.08
2018-06-11T12:00:46.031Z,10.43
2018-06-11T12:03:15.189Z,10.23
2018-06-11T12:05:44.341Z,9.90
2018-06-11T12:08:13.465Z,10.40
2018-06-11T12:10:43.614Z,10.25
2018-06-11T12:13:12.707Z,10.45
2018-06-11T12:15:41.847Z,12.25
2018-06-11T12:18:11.030Z,11.00
2018-06-11T12:20:40.170Z,12.60
2018-06-11T12:23:09.281Z,13.43
2018-06-11T12:25:38.430Z,13.75
2018-06-11T12:28:07.559Z,13.83
2018-06-11T12:30:36.713Z,14.43
2018-06-11T12:33:06.067Z,14.33
2018-06-11T12:35:35.481Z,16.80
2018-06-11T12:38:04.958Z,15.03
2018-06-11T12:40:34.422Z,17.77
2018-06-11T12:43:03.821Z,17.63
2018-06-11T12:45:33.179Z,15.60
2018-06-11T12:48:02.596Z,17.30
2018-06-11T12:50:32.020Z,17.70
2018-06-11T12:53:01.360Z,16.97
2018-06-11T12:55:30.798Z,17.93
2018-06-11T12:58:00.214Z,18.23
2018-06-11T13:00:29.675Z,18.47
2018-06-11T13:02:59.120Z,18.70
2018-06-11T13:05:28.286Z,17.70
2018-06-11T13:07:57.620Z,17.77
2018-06-11T13:10:27.058Z,19.10
2018-06-11T13:12:56.503Z,18.17
2018-06-11T13:15:25.944Z,19.93
2018-06-11T13:17:55.323Z,20.20
2018-06-11T13:20:24.799Z,20.43
2018-06-11T13:22:54.242Z,20.00
2018-06-11T13:25:23.671Z,20.40
2018-06-11T13:27:53.110Z,19.60
2018-06-11T13:30:22.533Z,20.20
2018-06-11T13:32:53.028Z,20.07
2018-06-11T13:35:22.450Z,21.70
2018-06-11T13:37:51.855Z,20.27
2018-06-11T13:40:21.300Z,23.03
2018-06-11T13:42:51.719Z,21.33
2018-06-11T13:45:21.067Z,22.00
2018-06-11T13:47:50.526Z,23.00
2018-06-11T13:50:21.058Z,22.17
2018-06-11T13:52:58.514Z,22.47
2018-06-11T13:55:27.918Z,25.10
2018-06-11T13:57:57.341Z,25.70
2018-06-11T14:00:26.764Z,26.27
2018-06-11T14:02:56.109Z,26.40
2018-06-11T14:05:25.530Z,28.43
2018-06-11T14:07:54.898Z,28.80
2018-06-11T14:10:24.401Z,27.13
2018-06-11T14:13:00.893Z,28.93
2018-06-11T14:15:30.231Z,28.93
2018-06-11T14:17:59.698Z,29.13
2018-06-11T14:20:29.116Z,29.57
2018-06-11T14:22:58.530Z,27.93
2018-06-11T14:25:27.902Z,30.30
2018-06-11T14:27:57.233Z,28.57
2018-06-11T14:30:26.642Z,28.67
2018-06-11T14:32:56.289Z,28.90
2018-06-11T14:35:25.705Z,29.20
2018-06-11T14:37:55.138Z,27.70
2018-06-11T14:40:24.463Z,27.82
2018-06-11T14:42:54.047Z,28.52
2018-06-11T14:45:23.417Z,27.90
2018-06-11T14:47:52.705Z,25.15
2018-06-11T14:50:22.106Z,26.17
2018-06-11T14:52:52.514Z,25.30
2018-06-11T14:55:22.954Z,24.15
2018-06-11T14:57:52.354Z,23.85
2018-06-11T15:00:21.714Z,22.70
2018-06-11T15:02:52.147Z,21.50
2018-06-11T15:05:21.525Z,20.62
2018-06-11T15:07:50.945Z,21.70
2018-06-11T15:10:20.462Z,20.60
2018-06-11T15:12:50.958Z,22.73
2018-06-11T15:15:20.389Z,22.35
2018-06-11T15:17:49.722Z,21.62
2018-06-11T15:20:19.093Z,21.82
2018-06-11T15:22:56.399Z,22.00
2018-06-11T15:25:33.379Z,22.58
2018-06-11T15:28:02.520Z,21.48
2018-06-11T15:30:31.645Z,21.48
2018-06-11T15:33:00.597Z,22.27
2018-06-11T15:35:36.809Z,20.68
2018-06-11T15:38:06.283Z,23.70
2018-06-11T15:40:37.617Z,25.32
2018-06-11T15:43:07.073Z,27.80
2018-06-11T15:45:36.403Z,27.55
2018-06-11T15:48:05.771Z,25.17
2018-06-11T15:50:36.352Z,26.02
2018-06-11T15:53:05.727Z,26.57
2018-06-11T15:55:35.210Z,26.25
2018-06-11T15:58:04.598Z,24.90
2018-06-11T16:00:34.046Z,24.23
2018-06-11T16:03:03.460Z,24.72
2018-06-11T16:05:32.996Z,24.10
2018-06-11T16:08:02.369Z,26.07
2018-06-11T16:10:31.731Z,25.12
2018-06-11T16:13:01.046Z,25.08
2018-06-11T16:15:30.417Z,25.60
2018-06-11T16:17:59.783Z,25.30
2018-06-11T16:20:29.150Z,24.85
2018-06-11T16:22:58.590Z,25.27
2018-06-11T16:25:27.960Z,23.65
2018-06-11T16:27:57.273Z,23.50
2018-06-11T16:30:26.671Z,23.80
2018-06-11T16:32:56.020Z,23.55
2018-06-11T16:35:27.262Z,22.40
2018-06-11T16:38:04.110Z,23.50
2018-06-11T16:40:34.331Z,23.40
2018-06-11T16:43:03.521Z,22.27
2018-06-11T16:45:39.809Z,22.70
2018-06-11T16:48:09.125Z,22.00
2018-06-11T16:50:40.690Z,23.37
2018-06-11T16:53:10.129Z,22.50
2018-06-11T16:55:39.565Z,21.90
2018-06-11T16:58:08.939Z,23.17
2018-06-11T17:00:40.301Z,23.17
2018-06-11T17:03:09.706Z,23.30
2018-06-11T17:05:39.038Z,23.27
2018-06-11T17:08:08.495Z,25.43
2018-06-11T17:10:38.893Z,24.73
2018-06-11T17:13:08.262Z,24.67
2018-06-11T17:15:37.534Z,23.53
2018-06-11T17:18:06.922Z,23.77
2018-06-11T17:20:37.291Z,24.67
2018-06-11T17:23:06.687Z,23.63
2018-06-11T17:25:36.047Z,24.37
2018-06-11T17:28:05.398Z,25.40
2018-06-11T17:30:34.869Z,25.17
2018-06-11T17:33:04.383Z,25.07
2018-06-11T17:35:33.802Z,26.10
2018-06-11T17:38:03.117Z,25.87
2018-06-11T17:40:32.482Z,26.67
2018-06-11T17:43:01.893Z,29.43
2018-06-11T17:45:31.295Z,29.60
2018-06-11T17:48:00.668Z,33.13
2018-06-11T17:50:29.997Z,31.67
2018-06-11T17:52:59.381Z,31.87
2018-06-11T17:57:58.166Z,35.03
2018-06-11T18:00:27.382Z,34.17
2018-06-11T18:02:56.528Z,35.30
2018-06-11T18:05:26.033Z,33.27
2018-06-11T18:07:55.406Z,35.77
2018-06-11T18:10:24.841Z,34.07
2018-06-11T18:12:53.998Z,34.67
2018-06-11T18:15:23.358Z,33.83
2018-06-11T18:17:52.707Z,34.83
2018-06-11T18:20:22.106Z,33.90
2018-06-11T18:22:52.542Z,33.77
2018-06-11T18:25:21.930Z,34.57
2018-06-11T18:30:20.567Z,34.90
2018-06-11T18:32:50.902Z,35.13
2018-06-11T18:35:20.305Z,36.40
2018-06-11T18:37:49.739Z,34.70
2018-06-11T18:40:19.133Z,36.73
2018-06-11T18:42:50.670Z,34.90
2018-06-11T18:45:20.031Z,35.77
2018-06-11T18:47:49.562Z,35.43
2018-06-11T18:50:18.954Z,33.40
2018-06-11T18:52:49.496Z,35.33
2018-06-11T18:55:26.681Z,33.27
2018-06-11T18:57:55.976Z,34.37
2018-06-11T19:00:27.471Z,33.63
2018-06-11T19:02:56.873Z,34.57
2018-06-11T19:05:26.249Z,34.70
2018-06-11T19:07:55.606Z,36.20
2018-06-11T19:10:25.054Z,34.20
2018-06-11T19:12:54.382Z,36.40
2018-06-11T19:15:23.798Z,35.93
2018-06-11T19:17:53.235Z,37.40
2018-06-11T19:20:22.623Z,36.40
2018-06-11T19:22:53.986Z,36.30
2018-06-11T19:25:23.401Z,40.50
2018-06-11T19:27:53.373Z,43.57
2018-06-11T19:30:22.716Z,38.97
2018-06-11T19:32:52.948Z,38.57
2018-06-11T19:35:23.205Z,42.07
2018-06-11T19:37:52.732Z,37.73
2018-06-11T19:43:55.505Z,45.43
2018-06-11T19:46:35.474Z,45.43
2018-06-11T19:49:07.094Z,49.70
2018-06-11T19:51:36.856Z,46.87
2018-06-11T19:57:09.420Z,27.03
2018-06-11T19:59:39.007Z,30.70
2018-06-11T20:02:09.624Z,32.27
2018-06-11T20:04:39.310Z,31.07
2018-06-11T20:07:08.795Z,26.43
2018-06-11T20:09:38.331Z,25.77
2018-06-11T20:12:11.381Z,22.77
2018-06-11T20:14:40.821Z,26.27
2018-06-11T20:17:10.708Z,28.73
2018-06-11T20:19:41.415Z,26.30
2018-06-11T20:22:15.028Z,23.90
2018-06-11T20:24:44.638Z,21.80
2018-06-11T20:27:14.211Z,23.87
2018-06-11T20:29:43.791Z,28.53
2018-06-11T20:32:13.387Z,27.43
2018-06-11T20:34:43.040Z,29.53
2018-06-11T20:37:12.659Z,27.47
2018-06-11T20:39:42.354Z,29.07
2018-06-11T20:42:13.157Z,30.10
2018-06-11T20:44:42.785Z,28.60
2018-06-11T20:47:12.450Z,29.13
2018-06-11T20:49:41.999Z,25.40
2018-06-11T20:52:12.865Z,27.63
2018-06-11T20:54:42.762Z,24.30
2018-06-11T20:57:12.547Z,23.07
2018-06-11T20:59:42.211Z,25.80
2018-06-11T21:02:13.101Z,27.40
2018-06-11T21:04:42.832Z,26.97
2018-06-11T21:07:28.646Z,25.17
2018-06-11T21:09:58.443Z,22.67
2018-06-11T21:12:29.711Z,21.87
2018-06-11T21:15:15.576Z,22.37
2018-06-11T21:17:47.594Z,24.40
2018-06-11T21:20:32.477Z,22.50
2018-06-11T21:26:04.446Z,24.23
2018-06-11T21:28:34.187Z,28.37
2018-06-11T21:31:05.896Z,31.27
2018-06-11T21:33:35.556Z,30.60
2018-06-11T21:36:05.155Z,32.50
2018-06-11T21:38:34.809Z,36.07
2018-06-11T21:41:05.667Z,34.83
2018-06-11T21:43:35.311Z,33.37
2018-06-11T21:46:05.058Z,34.90
2018-06-11T21:48:34.756Z,38.13
2018-06-11T21:51:04.471Z,36.60
2018-06-11T21:53:34.118Z,35.77
2018-06-11T21:56:03.809Z,35.43
2018-06-11T21:58:33.499Z,37.30
2018-06-11T22:01:03.142Z,36.60
2018-06-11T22:03:32.808Z,38.40
2018-06-11T22:06:02.456Z,36.50
2018-06-11T22:08:32.155Z,38.17
2018-06-11T22:13:42.310Z,41.33
2018-06-11T22:16:33.657Z,44.80
2018-06-11T22:22:45.404Z,47.27
2018-06-11T22:28:44.259Z,49.00
2018-06-11T22:34:50.231Z,51.17
2018-06-11T22:48:19.410Z,50.27
2018-06-11T22:51:15.236Z,50.03
2018-06-11T22:56:23.665Z,48.27
2018-06-11T22:58:53.994Z,49.90
2018-06-11T23:01:42.802Z,49.23
2018-06-11T23:04:20.920Z,52.73
2018-06-11T23:06:50.682Z,54.10
2018-06-11T23:09:20.655Z,57.70
2018-06-11T23:12:00.067Z,54.63
2018-06-11T23:14:30.085Z,55.63
2018-06-11T23:17:00.114Z,55.13
2018-06-11T23:19:31.940Z,56.73
2018-06-11T23:22:05.184Z,59.00
2018-06-11T23:24:35.981Z,59.97
2018-06-11T23:27:05.903Z,62.57
2018-06-11T23:29:35.502Z,62.00
2018-06-11T23:32:06.271Z,61.47
2018-06-11T23:34:35.839Z,61.33
2018-06-11T23:37:05.562Z,62.20
2018-06-11T23:39:36.420Z,66.83
2018-06-11T23:42:07.102Z,66.50
2018-06-11T23:44:36.827Z,63.50
2018-06-11T23:50:04.231Z,72.77
2018-06-11T23:52:34.922Z,73.87
2018-06-11T23:55:04.709Z,75.17
2018-06-11T23:57:34.528Z,83.77
